Time;durP1;ratioP1;P1;durP2;ratioP2;P2;SDS_P1;SDS_P2;PMS_P1;PMS_P2;Temp;Humidity;BMP_temperature;BMP_pressure;BME280_temperature;BME280_humidity;BME280_pressure;Samples;Min_cycle;Max_cycle;Signal;HPM_P1;HPM_P2
2022/02/24 00:00:40;;;;;;;32.63;13.48;;;;;;;;;;5018177;28;20034;-87
2022/02/24 00:03:06;;;;;;;30.67;12.63;;;;;;;;;;5019041;28;20018;-86
2022/02/24 00:05:58;;;;;;;32.00;12.77;;;;;;;;;;5019362;28;20032;-86
2022/02/24 00:08:25;;;;;;;32.17;13.02;;;;;;;;;;5019074;28;20054;-86
2022/02/24 00:10:51;;;;;;;34.00;13.95;;;;;;;;;;5019202;28;20030;-87
2022/02/24 00:13:17;;;;;;;36.60;13.90;;;;;;;;;;5019283;28;20044;-86
2022/02/24 00:15:44;;;;;;;40.70;13.40;;;;;;;;;;5018895;28;20045;-87
2022/02/24 00:18:10;;;;;;;34.45;12.90;;;;;;;;;;5017990;28;20068;-87
2022/02/24 00:20:36;;;;;;;25.88;12.13;;;;;;;;;;5019034;28;20026;-88
2022/02/24 00:23:02;;;;;;;27.65;11.13;;;;;;;;;;5017518;28;20021;-87
2022/02/24 00:25:28;;;;;;;27.17;11.10;;;;;;;;;;5019092;28;20041;-88
2022/02/24 00:27:54;;;;;;;25.67;10.18;;;;;;;;;;5017666;28;20040;-88
2022/02/24 00:30:20;;;;;;;25.98;11.32;;;;;;;;;;5018653;28;20033;-88
2022/02/24 00:32:46;;;;;;;24.13;11.27;;;;;;;;;;5018632;28;20034;-88
2022/02/24 00:38:28;;;;;;;21.70;10.15;;;;;;;;;;5018518;28;20041;-88
2022/02/24 00:40:54;;;;;;;21.80;10.18;;;;;;;;;;5018722;28;20340;-88
2022/02/24 00:43:20;;;;;;;23.48;10.75;;;;;;;;;;5017818;28;20034;-88
2022/02/24 00:45:46;;;;;;;20.35;11.05;;;;;;;;;;5018670;28;20018;-88
2022/02/24 00:48:12;;;;;;;22.80;10.82;;;;;;;;;;5018698;28;20109;-90
2022/02/24 00:50:57;;;;;;;26.20;14.63;;;;;;;;;;5018175;28;20038;-86
2022/02/24 00:53:24;;;;;;;20.02;11.00;;;;;;;;;;5018401;28;20030;-88
2022/02/24 00:55:50;;;;;;;22.80;12.18;;;;;;;;;;5018252;28;20030;-88
2022/02/24 00:58:16;;;;;;;29.55;12.85;;;;;;;;;;5018483;28;20042;-88
2022/02/24 01:00:42;;;;;;;25.13;12.18;;;;;;;;;;5018484;28;20034;-88
2022/02/24 01:03:08;;;;;;;28.38;12.27;;;;;;;;;;5018265;28;20029;-87
2022/02/24 01:08:38;;;;;;;25.13;10.93;;;;;;;;;;5017886;28;20053;-88
2022/02/24 01:11:05;;;;;;;24.30;11.82;;;;;;;;;;5018269;28;20022;-86
2022/02/24 01:13:31;;;;;;;22.15;10.77;;;;;;;;;;5017788;28;20033;-85
2022/02/24 01:15:57;;;;;;;20.27;10.05;;;;;;;;;;5016891;28;20026;-88
2022/02/24 01:18:23;;;;;;;21.85;12.02;;;;;;;;;;5017074;28;20112;-88
2022/02/24 01:20:49;;;;;;;18.92;10.80;;;;;;;;;;5017828;28;20026;-88
2022/02/24 01:23:15;;;;;;;21.60;10.38;;;;;;;;;;5017012;28;20053;-87
2022/02/24 01:25:41;;;;;;;20.40;8.48;;;;;;;;;;5018325;28;20356;-87
2022/02/24 01:28:07;;;;;;;15.93;8.15;;;;;;;;;;5016944;28;20364;-87
2022/02/24 01:30:33;;;;;;;13.57;7.05;;;;;;;;;;5017486;28;20025;-87
2022/02/24 01:32:59;;;;;;;21.27;8.13;;;;;;;;;;5017888;28;20251;-86
2022/02/24 01:35:25;;;;;;;20.65;8.20;;;;;;;;;;5017655;28;20026;-87
2022/02/24 01:37:51;;;;;;;19.63;8.18;;;;;;;;;;5016663;28;20137;-85
2022/02/24 01:40:18;;;;;;;15.57;8.02;;;;;;;;;;5019646;28;20022;-86
2022/02/24 01:42:44;;;;;;;15.02;7.28;;;;;;;;;;5020734;28;20045;-87
2022/02/24 01:45:11;;;;;;;23.00;9.02;;;;;;;;;;5021779;28;20037;-87
2022/02/24 01:47:37;;;;;;;18.80;8.30;;;;;;;;;;5021973;28;20025;-87
2022/02/24 01:50:04;;;;;;;16.67;7.82;;;;;;;;;;5021904;28;20022;-86
2022/02/24 01:52:30;;;;;;;20.35;7.65;;;;;;;;;;5021559;28;20306;-85
2022/02/24 01:54:56;;;;;;;16.30;7.22;;;;;;;;;;5021782;28;20030;-85
2022/02/24 01:57:22;;;;;;;21.02;8.70;;;;;;;;;;5021545;28;20057;-86
2022/02/24 01:59:49;;;;;;;19.65;9.27;;;;;;;;;;5020396;28;20022;-85
2022/02/24 02:02:15;;;;;;;16.00;8.05;;;;;;;;;;5021422;28;20114;-86
2022/02/24 02:04:59;;;;;;;16.92;7.85;;;;;;;;;;5021289;28;20029;-86
2022/02/24 02:07:26;;;;;;;13.88;6.90;;;;;;;;;;5021309;28;20034;-86
2022/02/24 02:09:53;;;;;;;14.30;7.32;;;;;;;;;;5020947;28;20053;-85
2022/02/24 02:12:20;;;;;;;16.00;7.32;;;;;;;;;;5021136;28;20038;-86
2022/02/24 02:14:46;;;;;;;14.25;6.65;;;;;;;;;;5021275;28;20022;-86
2022/02/24 02:17:12;;;;;;;16.10;7.05;;;;;;;;;;5021377;28;20032;-85
2022/02/24 02:19:38;;;;;;;17.27;6.97;;;;;;;;;;5021209;28;20041;-86
2022/02/24 02:22:05;;;;;;;16.65;6.88;;;;;;;;;;5020964;28;20065;-85
2022/02/24 02:24:31;;;;;;;18.00;7.43;;;;;;;;;;5021046;28;20084;-85
2022/02/24 02:26:57;;;;;;;14.80;7.18;;;;;;;;;;5020995;28;20033;-86
2022/02/24 02:29:23;;;;;;;18.98;7.55;;;;;;;;;;5020860;28;20141;-85
2022/02/24 02:31:49;;;;;;;17.33;8.00;;;;;;;;;;5020780;28;20416;-86
2022/02/24 02:34:17;;;;;;;14.90;7.18;;;;;;;;;;5020866;28;20022;-86
2022/02/24 02:36:45;;;;;;;20.25;9.07;;;;;;;;;;5020759;28;20030;-85
2022/02/24 02:39:11;;;;;;;18.33;7.75;;;;;;;;;;5020873;28;20029;-85
2022/02/24 02:41:39;;;;;;;20.38;9.75;;;;;;;;;;5020847;28;20048;-85
2022/02/24 02:44:06;;;;;;;19.85;8.57;;;;;;;;;;5020462;28;20404;-85
2022/02/24 02:46:32;;;;;;;23.27;8.93;;;;;;;;;;5020555;28;20030;-86
2022/02/24 02:48:58;;;;;;;18.38;8.68;;;;;;;;;;5020615;28;20026;-87
2022/02/24 02:51:24;;;;;;;16.30;8.63;;;;;;;;;;5019890;28;20038;-87
2022/02/24 02:53:50;;;;;;;18.70;8.20;;;;;;;;;;5020753;28;20367;-87
2022/02/24 02:56:16;;;;;;;19.83;8.65;;;;;;;;;;5020575;28;20121;-88
2022/02/24 02:58:43;;;;;;;23.05;9.25;;;;;;;;;;5019434;28;20069;-87
2022/02/24 03:01:09;;;;;;;20.75;9.02;;;;;;;;;;5020432;28;20412;-87
2022/02/24 03:03:35;;;;;;;19.42;8.75;;;;;;;;;;5020565;28;20033;-87
2022/02/24 03:06:01;;;;;;;20.13;8.23;;;;;;;;;;5020333;28;20400;-87
2022/02/24 03:08:27;;;;;;;22.77;9.38;;;;;;;;;;5020381;28;20096;-87
2022/02/24 03:10:54;;;;;;;26.08;9.45;;;;;;;;;;5020207;28;20357;-87
2022/02/24 03:13:20;;;;;;;17.25;8.95;;;;;;;;;;5020140;28;20118;-87
2022/02/24 03:15:46;;;;;;;18.65;9.60;;;;;;;;;;5020089;28;20101;-87
2022/02/24 03:18:13;;;;;;;20.65;9.85;;;;;;;;;;5019649;28;20022;-86
2022/02/24 03:20:39;;;;;;;17.08;8.48;;;;;;;;;;5019861;28;20026;-86
2022/02/24 03:23:07;;;;;;;24.20;10.27;;;;;;;;;;5019912;28;20033;-86
2022/02/24 03:25:33;;;;;;;19.15;8.77;;;;;;;;;;5018655;28;20427;-86
2022/02/24 03:27:59;;;;;;;21.85;10.18;;;;;;;;;;5019282;28;20030;-86
2022/02/24 03:30:27;;;;;;;23.50;12.35;;;;;;;;;;5019852;28;20117;-86
2022/02/24 03:32:53;;;;;;;24.25;13.35;;;;;;;;;;5019827;28;20034;-87
2022/02/24 03:35:20;;;;;;;25.60;13.82;;;;;;;;;;5019966;28;20442;-86
2022/02/24 03:37:46;;;;;;;20.55;10.38;;;;;;;;;;5019743;28;20062;-86
2022/02/24 03:40:13;;;;;;;21.35;10.35;;;;;;;;;;5019534;28;20037;-85
2022/02/24 03:42:39;;;;;;;22.23;11.77;;;;;;;;;;5019190;28;20322;-86
2022/02/24 03:45:06;;;;;;;21.17;10.75;;;;;;;;;;5019454;28;20026;-86
2022/02/24 03:47:32;;;;;;;21.73;10.48;;;;;;;;;;5018548;28;20022;-87
2022/02/24 03:49:58;;;;;;;23.73;10.13;;;;;;;;;;5019534;28;20060;-85
2022/02/24 03:52:24;;;;;;;22.48;10.02;;;;;;;;;;5019513;28;20029;-88
2022/02/24 03:54:50;;;;;;;19.95;9.75;;;;;;;;;;5019395;28;20412;-88
2022/02/24 03:57:17;;;;;;;19.63;9.35;;;;;;;;;;5018533;28;20022;-87
2022/02/24 03:59:44;;;;;;;19.00;9.50;;;;;;;;;;5019015;28;20046;-87
2022/02/24 04:02:10;;;;;;;22.48;10.27;;;;;;;;;;5018618;28;20022;-87
2022/02/24 04:04:36;;;;;;;21.48;9.98;;;;;;;;;;5019382;28;20071;-88
2022/02/24 04:07:03;;;;;;;20.52;10.60;;;;;;;;;;5019405;28;20298;-88
2022/02/24 04:09:29;;;;;;;19.95;10.52;;;;;;;;;;5018955;28;20077;-87
2022/02/24 04:11:55;;;;;;;23.40;9.98;;;;;;;;;;5019321;28;20018;-88
2022/02/24 04:14:22;;;;;;;32.30;18.08;;;;;;;;;;5019066;28;20041;-88
2022/02/24 04:16:48;;;;;;;27.45;15.23;;;;;;;;;;5018307;28;20112;-87
2022/02/24 04:19:14;;;;;;;21.98;11.85;;;;;;;;;;5018160;28;20405;-87
2022/02/24 04:21:40;;;;;;;26.50;12.25;;;;;;;;;;5019068;28;20161;-86
2022/02/24 04:24:06;;;;;;;28.40;11.77;;;;;;;;;;5018576;28;20026;-89
2022/02/24 04:26:32;;;;;;;24.23;11.63;;;;;;;;;;5019028;28;20022;-88
2022/02/24 04:28:59;;;;;;;24.35;11.23;;;;;;;;;;5018809;28;20025;-87
2022/02/24 04:31:25;;;;;;;24.77;11.27;;;;;;;;;;5018973;28;20037;-87
2022/02/24 04:33:51;;;;;;;23.95;11.45;;;;;;;;;;5018716;28;20056;-87
2022/02/24 04:36:17;;;;;;;39.72;17.90;;;;;;;;;;5018344;28;20037;-85
2022/02/24 04:38:43;;;;;;;55.42;23.35;;;;;;;;;;5018453;28;20022;-85
2022/02/24 04:41:09;;;;;;;41.85;18.52;;;;;;;;;;5018446;28;20029;-85
2022/02/24 04:43:35;;;;;;;35.40;14.20;;;;;;;;;;5018160;28;20029;-85
2022/02/24 04:46:02;;;;;;;34.80;13.88;;;;;;;;;;5018567;28;20033;-86
2022/02/24 04:48:28;;;;;;;29.10;12.63;;;;;;;;;;5018284;28;20116;-85
2022/02/24 04:50:54;;;;;;;28.33;11.55;;;;;;;;;;5017467;28;20025;-86
2022/02/24 04:53:20;;;;;;;20.70;10.25;;;;;;;;;;5017570;28;20049;-87
2022/02/24 04:55:47;;;;;;;19.92;9.38;;;;;;;;;;5018410;28;20028;-86
2022/02/24 04:58:13;;;;;;;25.77;10.57;;;;;;;;;;5018305;28;20115;-87
2022/02/24 05:00:39;;;;;;;24.17;10.55;;;;;;;;;;5017412;28;20030;-87
2022/02/24 05:03:06;;;;;;;23.63;9.90;;;;;;;;;;5018089;28;20053;-86
2022/02/24 05:05:32;;;;;;;25.85;9.63;;;;;;;;;;5017038;28;20022;-86
2022/02/24 05:07:59;;;;;;;24.38;11.25;;;;;;;;;;5018146;28;20049;-87
2022/02/24 05:10:26;;;;;;;31.50;13.98;;;;;;;;;;5017996;28;20049;-87
2022/02/24 05:12:52;;;;;;;44.97;17.98;;;;;;;;;;5017138;28;20026;-86
2022/02/24 05:15:18;;;;;;;56.03;23.45;;;;;;;;;;5017073;28;20072;-86
2022/02/24 05:17:44;;;;;;;70.05;28.15;;;;;;;;;;5018097;28;20282;-87
2022/02/24 05:20:11;;;;;;;68.97;30.45;;;;;;;;;;5016729;28;20084;-87
2022/02/24 05:22:40;;;;;;;80.43;37.05;;;;;;;;;;5017890;28;20313;-86
2022/02/24 05:25:09;;;;;;;236.20;109.10;;;;;;;;;;5016982;28;20068;-86
2022/02/24 05:27:35;;;;;;;131.80;66.00;;;;;;;;;;5017164;28;20092;-87
2022/02/24 05:30:01;;;;;;;260.70;113.50;;;;;;;;;;5017701;28;20056;-87
2022/02/24 05:32:27;;;;;;;368.98;152.85;;;;;;;;;;5017924;28;20033;-88
2022/02/24 05:34:54;;;;;;;386.88;158.00;;;;;;;;;;5016691;28;20470;-87
2022/02/24 05:37:21;;;;;;;509.83;245.40;;;;;;;;;;5017758;28;20333;-88
2022/02/24 05:39:47;;;;;;;526.55;263.77;;;;;;;;;;5017594;28;20053;-87
2022/02/24 05:42:13;;;;;;;434.65;202.38;;;;;;;;;;5017772;28;20029;-86
2022/02/24 05:44:39;;;;;;;348.00;150.68;;;;;;;;;;5018428;28;20109;-87
2022/02/24 05:47:06;;;;;;;371.48;155.65;;;;;;;;;;5017951;28;20061;-87
2022/02/24 05:49:32;;;;;;;396.90;192.57;;;;;;;;;;5018679;28;20032;-87
2022/02/24 05:51:58;;;;;;;341.20;166.13;;;;;;;;;;5016916;28;20034;-87
2022/02/24 05:54:24;;;;;;;200.73;88.63;;;;;;;;;;5018063;28;20038;-87
2022/02/24 05:56:50;;;;;;;127.28;52.92;;;;;;;;;;5016873;28;20088;-87
2022/02/24 05:59:16;;;;;;;124.28;45.95;;;;;;;;;;5017530;28;20022;-87
2022/02/24 06:01:42;;;;;;;113.18;40.53;;;;;;;;;;5016710;28;20116;-87
2022/02/24 06:04:08;;;;;;;76.00;25.83;;;;;;;;;;5017785;28;20018;-87
2022/02/24 06:06:34;;;;;;;38.63;17.23;;;;;;;;;;5016731;28;20061;-87
2022/02/24 06:09:00;;;;;;;30.98;14.40;;;;;;;;;;5032138;28;20049;-86
2022/02/24 06:11:26;;;;;;;29.30;13.43;;;;;;;;;;5037317;28;20030;-87
2022/02/24 06:13:53;;;;;;;29.05;14.23;;;;;;;;;;5036750;28;20076;-87
2022/02/24 06:16:19;;;;;;;29.15;14.07;;;;;;;;;;5036233;28;20032;-87
2022/02/24 06:18:45;;;;;;;27.23;12.57;;;;;;;;;;5037319;28;20076;-87
2022/02/24 06:21:30;;;;;;;25.10;11.85;;;;;;;;;;5026176;28;20037;-87
2022/02/24 06:23:56;;;;;;;34.90;14.57;;;;;;;;;;5017285;28;20293;-87
2022/02/24 06:26:22;;;;;;;32.05;15.48;;;;;;;;;;5019725;28;20041;-87
2022/02/24 06:28:48;;;;;;;39.80;16.60;;;;;;;;;;5020940;28;20030;-86
2022/02/24 06:31:14;;;;;;;36.70;17.02;;;;;;;;;;5021134;28;20029;-87
2022/02/24 06:33:40;;;;;;;41.20;18.17;;;;;;;;;;5022571;28;20034;-88
2022/02/24 06:39:10;;;;;;;102.45;41.30;;;;;;;;;;5020934;28;20467;-87
2022/02/24 06:41:36;;;;;;;70.25;32.10;;;;;;;;;;5020676;28;20419;-88
2022/02/24 06:44:02;;;;;;;64.60;30.80;;;;;;;;;;5020552;28;20446;-85
2022/02/24 06:46:28;;;;;;;66.85;31.58;;;;;;;;;;5020569;28;20029;-85
2022/02/24 06:48:54;;;;;;;61.45;30.23;;;;;;;;;;5020771;28;20927;-86
2022/02/24 06:51:20;;;;;;;52.78;28.17;;;;;;;;;;5020194;28;20033;-85
2022/02/24 06:53:46;;;;;;;53.50;28.85;;;;;;;;;;5020310;28;20026;-85
2022/02/24 06:56:12;;;;;;;58.22;28.15;;;;;;;;;;5020424;28;20053;-85
2022/02/24 06:58:38;;;;;;;48.88;26.20;;;;;;;;;;5019507;28;20048;-85
2022/02/24 07:01:05;;;;;;;53.10;26.90;;;;;;;;;;5020246;28;20408;-85
2022/02/24 07:03:31;;;;;;;61.00;31.25;;;;;;;;;;5020065;28;20029;-86
2022/02/24 07:05:57;;;;;;;73.60;36.45;;;;;;;;;;5020304;28;20026;-85
2022/02/24 07:08:23;;;;;;;59.05;29.35;;;;;;;;;;5020000;28;20480;-85
2022/02/24 07:10:49;;;;;;;53.08;27.02;;;;;;;;;;5019064;28;20033;-84
2022/02/24 07:13:15;;;;;;;45.08;24.23;;;;;;;;;;5020094;28;20071;-85
2022/02/24 07:15:41;;;;;;;45.90;24.20;;;;;;;;;;5020002;28;20105;-84
2022/02/24 07:18:07;;;;;;;48.90;23.88;;;;;;;;;;5019994;28;20080;-85
2022/02/24 07:20:33;;;;;;;60.50;29.95;;;;;;;;;;5019809;28;20049;-84
2022/02/24 07:22:59;;;;;;;60.70;30.20;;;;;;;;;;5018699;28;20341;-85
2022/02/24 07:25:25;;;;;;;47.38;24.92;;;;;;;;;;5019763;28;20026;-84
2022/02/24 07:27:51;;;;;;;50.85;24.83;;;;;;;;;;5018737;28;20068;-84
2022/02/24 07:30:17;;;;;;;58.33;28.63;;;;;;;;;;5019589;28;20065;-83
2022/02/24 07:32:43;;;;;;;49.65;25.60;;;;;;;;;;5019140;28;20041;-84
2022/02/24 07:35:09;;;;;;;47.40;23.80;;;;;;;;;;5019466;28;20396;-84
2022/02/24 07:37:36;;;;;;;43.05;21.27;;;;;;;;;;5017645;28;20038;-83
2022/02/24 07:40:03;;;;;;;38.75;20.70;;;;;;;;;;5019156;28;20036;-84
2022/02/24 07:42:30;;;;;;;38.97;19.83;;;;;;;;;;5019416;28;20366;-85
2022/02/24 07:44:56;;;;;;;38.20;19.73;;;;;;;;;;5019269;28;20022;-88
2022/02/24 07:47:22;;;;;;;43.03;22.58;;;;;;;;;;5019728;28;20025;-90
2022/02/24 07:49:48;;;;;;;59.83;25.20;;;;;;;;;;5019475;28;20026;-90
2022/02/24 07:52:15;;;;;;;50.78;24.10;;;;;;;;;;5019125;28;20025;-90
2022/02/24 07:54:41;;;;;;;50.25;21.33;;;;;;;;;;5019547;28;20088;-90
2022/02/24 07:57:07;;;;;;;34.90;18.30;;;;;;;;;;5018576;28;20026;-91
2022/02/24 07:59:34;;;;;;;39.03;18.40;;;;;;;;;;5019509;28;20088;-90
2022/02/24 08:02:00;;;;;;;29.08;14.35;;;;;;;;;;5018637;28;20069;-90
2022/02/24 08:04:26;;;;;;;23.30;12.57;;;;;;;;;;5019083;28;20026;-89
2022/02/24 08:06:52;;;;;;;37.78;19.15;;;;;;;;;;5018381;28;20101;-89
2022/02/24 08:09:18;;;;;;;30.92;14.63;;;;;;;;;;5018121;28;20042;-90
2022/02/24 08:12:38;;;;;;;31.30;12.20;;;;;;;;;;5019030;28;20363;-90
2022/02/24 08:14:30;;;;;;;28.67;11.68;;;;;;;;;;5019195;28;20481;-88
2022/02/24 08:16:57;;;;;;;41.55;11.30;;;;;;;;;;5019186;28;20033;-89
2022/02/24 08:19:23;;;;;;;22.65;10.73;;;;;;;;;;5019131;28;20033;-89
2022/02/24 08:21:49;;;;;;;25.35;10.32;;;;;;;;;;5018881;28;20026;-89
2022/02/24 08:24:15;;;;;;;25.35;11.65;;;;;;;;;;5018691;28;20018;-89
2022/02/24 08:26:41;;;;;;;31.17;11.63;;;;;;;;;;5019036;28;20049;-89
2022/02/24 08:29:07;;;;;;;29.40;11.98;;;;;;;;;;5018639;28;20018;-90
2022/02/24 08:31:33;;;;;;;43.38;15.60;;;;;;;;;;5018536;28;20025;-89
2022/02/24 08:33:59;;;;;;;39.10;14.23;;;;;;;;;;5018918;28;20026;-90
2022/02/24 08:36:25;;;;;;;33.63;14.13;;;;;;;;;;5018306;28;20030;-89
2022/02/24 08:38:51;;;;;;;39.60;15.38;;;;;;;;;;5018307;28;20060;-87
2022/02/24 08:41:17;;;;;;;38.78;19.88;;;;;;;;;;5018684;28;20076;-87
2022/02/24 08:43:43;;;;;;;43.15;19.38;;;;;;;;;;5018436;28;20404;-90
2022/02/24 08:46:09;;;;;;;47.30;24.00;;;;;;;;;;5018701;28;20030;-89
2022/02/24 08:48:35;;;;;;;240.52;142.98;;;;;;;;;;5018291;28;20046;-89
2022/02/24 08:51:01;;;;;;;79.80;46.72;;;;;;;;;;5018431;28;20051;-90
2022/02/24 08:53:27;;;;;;;298.17;211.88;;;;;;;;;;5017809;28;20050;-88
2022/02/24 08:55:53;;;;;;;921.08;705.28;;;;;;;;;;5017900;28;20026;-89
2022/02/24 08:58:19;;;;;;;794.28;611.38;;;;;;;;;;5018636;28;20324;-89
2022/02/24 09:00:47;;;;;;;936.85;678.97;;;;;;;;;;5018330;28;20044;-89
2022/02/24 09:03:15;;;;;;;625.78;489.90;;;;;;;;;;5018301;28;20093;-89
2022/02/24 09:05:41;;;;;;;198.40;134.05;;;;;;;;;;5018347;28;20528;-89
2022/02/24 09:08:07;;;;;;;1751.55;824.67;;;;;;;;;;5017805;28;20037;-89
2022/02/24 09:10:33;;;;;;;1941.32;870.47;;;;;;;;;;5017992;28;20041;-88
2022/02/24 09:13:00;;;;;;;1999.90;965.13;;;;;;;;;;5017171;28;20409;-89
2022/02/24 09:15:27;;;;;;;859.35;458.27;;;;;;;;;;5018080;28;20033;-88
2022/02/24 09:17:53;;;;;;;1866.65;830.33;;;;;;;;;;5018272;28;20037;-88
2022/02/24 09:20:19;;;;;;;1605.70;765.28;;;;;;;;;;5018012;28;20057;-91
2022/02/24 09:22:45;;;;;;;1087.95;576.40;;;;;;;;;;5018357;28;20041;-89
2022/02/24 09:25:11;;;;;;;936.08;514.03;;;;;;;;;;5016830;28;20064;-89
2022/02/24 09:27:38;;;;;;;1634.78;804.63;;;;;;;;;;5017671;28;20026;-89
2022/02/24 09:30:05;;;;;;;431.17;216.65;;;;;;;;;;5018372;28;20045;-88
2022/02/24 09:32:32;;;;;;;987.58;545.80;;;;;;;;;;5016967;28;20026;-91
2022/02/24 09:34:59;;;;;;;1240.00;663.33;;;;;;;;;;5016962;28;20034;-89
2022/02/24 09:37:25;;;;;;;614.10;314.77;;;;;;;;;;5018247;28;20038;-90
2022/02/24 09:39:51;;;;;;;588.05;300.65;;;;;;;;;;5017952;28;20030;-89
2022/02/24 09:42:17;;;;;;;235.73;105.43;;;;;;;;;;5018169;28;20026;-88
2022/02/24 09:44:44;;;;;;;473.13;234.85;;;;;;;;;;5017642;28;20026;-91
2022/02/24 09:47:10;;;;;;;411.55;186.63;;;;;;;;;;5017971;28;20034;-91
2022/02/24 09:49:39;;;;;;;452.70;218.18;;;;;;;;;;5017521;28;20029;-90
2022/02/24 09:52:05;;;;;;;347.58;155.98;;;;;;;;;;5016744;28;20026;-91
2022/02/24 09:54:31;;;;;;;413.80;189.45;;;;;;;;;;5016785;28;20041;-91
2022/02/24 09:56:58;;;;;;;311.65;139.68;;;;;;;;;;5016854;28;20018;-91
2022/02/24 09:59:25;;;;;;;254.27;111.97;;;;;;;;;;5017501;28;20029;-90
2022/02/24 10:01:51;;;;;;;1083.72;585.75;;;;;;;;;;5019659;28;20033;-90
2022/02/24 10:04:18;;;;;;;629.95;330.23;;;;;;;;;;5021593;28;20348;-90
2022/02/24 10:06:45;;;;;;;357.67;169.70;;;;;;;;;;5021148;28;20416;-91
2022/02/24 10:09:12;;;;;;;428.83;226.65;;;;;;;;;;5021166;28;20061;-91
2022/02/24 10:11:39;;;;;;;438.60;238.82;;;;;;;;;;5020408;28;20053;-90
2022/02/24 10:14:12;;;;;;;1213.45;713.33;;;;;;;;;;5021273;28;20037;-90
2022/02/24 10:16:52;;;;;;;1162.10;694.00;;;;;;;;;;5021709;28;20375;-90
2022/02/24 10:19:18;;;;;;;254.60;97.32;;;;;;;;;;5021484;28;20030;-90
2022/02/24 10:22:04;;;;;;;1426.78;559.05;;;;;;;;;;5020224;28;20124;-90
2022/02/24 10:24:31;;;;;;;536.45;212.38;;;;;;;;;;5021254;28;20029;-91
2022/02/24 10:27:15;;;;;;;279.08;98.55;;;;;;;;;;5022276;28;20021;-91
2022/02/24 10:29:51;;;;;;;105.97;40.00;;;;;;;;;;5020931;28;20052;-91
2022/02/24 10:32:35;;;;;;;460.20;171.43;;;;;;;;;;5020397;28;20087;-93
2022/02/24 10:35:21;;;;;;;832.13;372.90;;;;;;;;;;5020933;28;20032;-92
2022/02/24 10:37:51;;;;;;;404.20;168.00;;;;;;;;;;5021108;28;20048;-92
2022/02/24 10:40:18;;;;;;;39.85;15.75;;;;;;;;;;5020693;28;20117;-91
2022/02/24 10:42:44;;;;;;;182.75;68.40;;;;;;;;;;5020053;28;20443;-92
2022/02/24 10:45:14;;;;;;;1451.75;741.28;;;;;;;;;;5020966;28;20033;-92
2022/02/24 10:47:56;;;;;;;271.75;120.90;;;;;;;;;;5020921;28;20452;-92
2022/02/24 10:50:24;;;;;;;615.22;316.63;;;;;;;;;;5019930;28;20034;-92
2022/02/24 10:53:05;;;;;;;388.83;177.23;;;;;;;;;;5020093;28;20038;-90
2022/02/24 10:55:31;;;;;;;53.70;24.02;;;;;;;;;;5019949;28;20100;-88
2022/02/24 10:58:04;;;;;;;545.17;292.85;;;;;;;;;;5020286;28;20316;-87
2022/02/24 11:00:31;;;;;;;575.10;322.17;;;;;;;;;;5019425;28;20042;-87
2022/02/24 11:02:57;;;;;;;483.70;237.05;;;;;;;;;;5020512;28;20081;-86
2022/02/24 11:05:24;;;;;;;291.17;113.30;;;;;;;;;;5020389;28;20052;-88
2022/02/24 11:07:51;;;;;;;180.85;62.08;;;;;;;;;;5003379;28;20030;-87
2022/02/24 11:10:17;;;;;;;1612.05;655.05;;;;;;;;;;5019596;28;20050;-87
2022/02/24 11:12:43;;;;;;;1727.45;705.05;;;;;;;;;;5019076;28;20118;-88
2022/02/24 11:15:09;;;;;;;501.15;181.85;;;;;;;;;;5019170;28;20128;-86
2022/02/24 11:17:37;;;;;;;501.48;191.00;;;;;;;;;;5020067;28;20116;-87
2022/02/24 11:20:04;;;;;;;435.63;163.82;;;;;;;;;;5019205;28;20057;-87
2022/02/24 11:22:30;;;;;;;188.50;66.25;;;;;;;;;;5019915;28;20408;-86
2022/02/24 11:24:56;;;;;;;452.50;173.45;;;;;;;;;;5018854;28;20026;-86
2022/02/24 11:27:37;;;;;;;231.77;84.78;;;;;;;;;;5020123;28;20033;-86
2022/02/24 11:30:05;;;;;;;216.80;78.50;;;;;;;;;;5019806;28;20425;-86
2022/02/24 11:32:32;;;;;;;69.13;25.63;;;;;;;;;;5018868;28;20030;-87
2022/02/24 11:35:07;;;;;;;511.85;207.90;;;;;;;;;;5019691;28;20110;-87
2022/02/24 11:37:41;;;;;;;416.60;150.43;;;;;;;;;;5019959;28;20117;-87
2022/02/24 11:40:28;;;;;;;206.02;77.05;;;;;;;;;;5019868;28;20336;-86
2022/02/24 11:43:23;;;;;;;266.92;89.20;;;;;;;;;;5018524;28;20022;-86
2022/02/24 11:45:50;;;;;;;574.63;231.13;;;;;;;;;;5018186;28;20026;-86
2022/02/24 11:48:20;;;;;;;322.73;118.95;;;;;;;;;;5019750;28;20025;-86
2022/02/24 11:50:54;;;;;;;182.30;61.60;;;;;;;;;;5019726;28;20022;-87
2022/02/24 11:53:26;;;;;;;71.05;27.80;;;;;;;;;;5019463;28;20034;-87
2022/02/24 11:55:55;;;;;;;58.75;24.60;;;;;;;;;;5019365;28;20430;-87
2022/02/24 11:58:27;;;;;;;368.25;189.32;;;;;;;;;;5018308;28;20034;-86
2022/02/24 12:00:53;;;;;;;;;;;;;;;;;;5019667;28;20068;-87
2022/02/24 12:03:39;;;;;;;44.10;22.17;;;;;;;;;;5019356;28;19913;-87
2022/02/24 12:06:07;;;;;;;107.50;56.95;;;;;;;;;;5018981;28;20041;-86
2022/02/24 12:08:52;;;;;;;106.05;56.67;;;;;;;;;;5019116;28;20072;-87
2022/02/24 12:11:28;;;;;;;120.43;63.17;;;;;;;;;;5019097;28;20033;-86
2022/02/24 12:13:55;;;;;;;137.77;74.90;;;;;;;;;;5019404;28;20029;-86
2022/02/24 12:16:22;;;;;;;151.50;81.15;;;;;;;;;;5018067;28;20336;-86
2022/02/24 12:18:49;;;;;;;84.72;41.90;;;;;;;;;;5018933;28;20037;-87
2022/02/24 12:21:28;;;;;;;34.83;17.30;;;;;;;;;;5017986;28;20321;-86
2022/02/24 12:23:55;;;;;;;47.55;21.33;;;;;;;;;;5017599;28;20026;-87
2022/02/24 12:26:40;;;;;;;35.90;17.52;;;;;;;;;;5018038;28;20101;-86
2022/02/24 12:29:18;;;;;;;36.22;17.83;;;;;;;;;;5017897;28;20413;-87
2022/02/24 12:31:45;;;;;;;45.13;18.77;;;;;;;;;;5017717;28;20026;-86
2022/02/24 12:34:11;;;;;;;39.95;18.42;;;;;;;;;;5017601;28;20076;-87
2022/02/24 12:36:37;;;;;;;35.38;15.65;;;;;;;;;;5018732;28;20030;-86
2022/02/24 12:39:06;;;;;;;34.53;15.02;;;;;;;;;;5018935;28;20104;-86
2022/02/24 12:41:33;;;;;;;38.42;20.05;;;;;;;;;;5018548;28;20021;-86
2022/02/24 12:43:59;;;;;;;14.27;5.13;;;;;;;;;;5018681;28;20026;-86
2022/02/24 12:46:25;;;;;;;25.60;11.07;;;;;;;;;;5018385;28;20018;-86
2022/02/24 12:48:51;;;;;;;15.13;5.97;;;;;;;;;;5017862;28;20034;-86
2022/02/24 12:51:26;;;;;;;34.38;15.02;;;;;;;;;;5018594;28;20045;-86
2022/02/24 12:53:58;;;;;;;13.68;6.22;;;;;;;;;;5026546;28;20032;-86
2022/02/24 12:56:24;;;;;;;24.67;11.43;;;;;;;;;;5031727;28;20030;-86
2022/02/24 12:58:50;;;;;;;26.52;10.68;;;;;;;;;;5018134;28;20030;-86
2022/02/24 13:01:17;;;;;;;19.08;8.82;;;;;;;;;;5018176;28;20033;-87
2022/02/24 13:03:44;;;;;;;18.83;7.97;;;;;;;;;;5017898;28;20068;-86
2022/02/24 13:06:10;;;;;;;34.42;15.20;;;;;;;;;;5017959;28;20022;-86
2022/02/24 13:11:23;;;;;;;28.27;11.38;;;;;;;;;;5018328;28;20065;-87
2022/02/24 13:13:50;;;;;;;15.68;6.93;;;;;;;;;;5018216;28;20105;-86
2022/02/24 13:16:17;;;;;;;15.73;7.00;;;;;;;;;;5017233;28;20116;-86
2022/02/24 13:18:48;;;;;;;19.27;8.43;;;;;;;;;;5018169;28;20057;-87
2022/02/24 13:21:14;;;;;;;23.60;10.07;;;;;;;;;;5017929;28;20050;-86
2022/02/24 13:23:42;;;;;;;19.45;7.78;;;;;;;;;;5017673;28;20036;-86
2022/02/24 13:26:08;;;;;;;24.17;9.80;;;;;;;;;;5028211;28;20084;-86
2022/02/24 13:28:35;;;;;;;19.65;7.80;;;;;;;;;;5037635;28;20033;-87
2022/02/24 13:31:03;;;;;;;18.02;7.95;;;;;;;;;;5037222;28;20410;-87
2022/02/24 13:33:30;;;;;;;10.55;4.05;;;;;;;;;;5036692;28;20029;-86
2022/02/24 13:36:00;;;;;;;10.05;4.78;;;;;;;;;;5036632;28;20075;-87
2022/02/24 13:38:38;;;;;;;15.63;7.28;;;;;;;;;;5037600;28;20119;-86
2022/02/24 13:41:05;;;;;;;12.32;4.68;;;;;;;;;;5036706;28;20041;-86
2022/02/24 13:43:31;;;;;;;22.67;9.27;;;;;;;;;;5036612;28;20104;-86
2022/02/24 13:45:58;;;;;;;23.63;10.27;;;;;;;;;;5037493;28;20033;-87
2022/02/24 13:48:25;;;;;;;20.13;9.05;;;;;;;;;;5037521;28;20051;-85
2022/02/24 13:50:51;;;;;;;25.88;11.93;;;;;;;;;;5036500;28;20032;-87
2022/02/24 13:53:25;;;;;;;13.05;6.10;;;;;;;;;;5036268;28;20349;-86
2022/02/24 13:55:55;;;;;;;25.65;10.98;;;;;;;;;;5037707;28;20419;-86
2022/02/24 13:58:28;;;;;;;130.73;70.97;;;;;;;;;;5037279;28;20052;-86
2022/02/24 14:00:59;;;;;;;76.22;44.33;;;;;;;;;;5037083;28;20025;-86
2022/02/24 14:03:29;;;;;;;392.77;252.80;;;;;;;;;;5036493;28;20316;-86
2022/02/24 14:06:05;;;;;;;81.88;43.10;;;;;;;;;;5037300;28;20022;-86
2022/02/24 14:08:32;;;;;;;29.48;11.38;;;;;;;;;;5036984;28;20096;-85
2022/02/24 14:11:08;;;;;;;31.02;12.27;;;;;;;;;;5037210;28;20038;-87
2022/02/24 14:13:35;;;;;;;27.90;12.98;;;;;;;;;;5036007;28;20116;-86
2022/02/24 14:16:01;;;;;;;19.98;8.95;;;;;;;;;;5036220;28;20060;-86
2022/02/24 14:18:28;;;;;;;15.57;7.13;;;;;;;;;;5037256;28;20361;-86
2022/02/24 14:20:54;;;;;;;20.67;9.07;;;;;;;;;;5036812;28;20040;-86
2022/02/24 14:23:20;;;;;;;16.65;7.65;;;;;;;;;;5037267;28;20052;-86
2022/02/24 14:25:46;;;;;;;16.55;8.20;;;;;;;;;;5036967;28;20106;-85
2022/02/24 14:28:12;;;;;;;19.95;7.82;;;;;;;;;;5037207;28;20021;-86